CheckWX is a tool to help pilots better visualize weather data.  It is not intended as a substitute for an official pre-flight weather briefing.

15:17:05 UTC

KGNB METAR
Granby-Grand County Airport
Granby, Colorado, USA
Current

27 mins ago

KGNB 261450Z AUTO 00000KT 10SM CLR 07/M01 A3013 RMK AO2 T00721009
Observed
May-26 @ 14:50 UTC
Visibility
10 SM
Flight Rules
VFR
Cloud Levels
  • Clear skies
Temperature
C / 45°F
Dewpoint
-1°C / 30°F
Humidity
57%
Altimeter
30.13" Hg
Pressure
1020.32 hPa
Previous

47 mins ago

KGNB 261430Z AUTO 00000KT 10SM CLR 06/00 A3014 RMK AO2 T00611004
Observed
May-26 @ 14:30 UTC
Visibility
10 SM
Flight Rules
VFR
Cloud Levels
  • Clear skies
Temperature
C / 43°F
Dewpoint
-0°C / 32°F
Humidity
66%
Altimeter
30.14" Hg
Pressure
1020.62 hPa
Previous

1 hour ago

KGNB 261410Z AUTO 00000KT 10SM CLR 05/M01 A3014 RMK AO2 T00521007
Observed
May-26 @ 14:10 UTC
Visibility
10 SM
Flight Rules
VFR
Cloud Levels
  • Clear skies
Temperature
C / 41°F
Dewpoint
-1°C / 30°F
Humidity
66%
Altimeter
30.14" Hg
Pressure
1020.62 hPa